createdAt,value
2019-02-06T00:02:31.996Z,3.50
2019-02-06T00:05:13.665Z,3.50
2019-02-06T00:07:34.143Z,3.50
2019-02-06T00:10:04.465Z,3.50
2019-02-06T00:12:34.213Z,3.60
2019-02-06T00:15:04.118Z,3.50
2019-02-06T00:17:33.820Z,3.50
2019-02-06T00:20:03.446Z,3.50
2019-02-06T00:22:33.196Z,3.50
2019-02-06T00:25:02.969Z,3.50
2019-02-06T00:27:32.717Z,3.50
2019-02-06T00:30:02.391Z,3.50
2019-02-06T00:32:34.227Z,3.50
2019-02-06T00:35:05.095Z,3.50
2019-02-06T00:37:37.109Z,3.60
2019-02-06T00:40:07.208Z,3.60
2019-02-06T00:42:36.978Z,3.60
2019-02-06T00:45:06.999Z,3.60
2019-02-06T00:47:36.709Z,3.70
2019-02-06T00:50:08.236Z,3.70
2019-02-06T00:52:38.502Z,3.70
2019-02-06T00:55:08.327Z,3.60
2019-02-06T00:57:38.055Z,3.60
2019-02-06T01:00:12.791Z,3.60
2019-02-06T01:02:42.461Z,3.60
2019-02-06T01:05:13.894Z,3.60
2019-02-06T01:07:43.578Z,3.70
2019-02-06T01:10:14.002Z,3.70
2019-02-06T01:12:43.735Z,3.70
2019-02-06T01:15:14.115Z,3.70
2019-02-06T01:17:43.902Z,3.70
2019-02-06T01:20:15.381Z,3.80
2019-02-06T01:22:45.067Z,3.70
2019-02-06T01:25:16.031Z,3.80
2019-02-06T01:27:45.992Z,3.80
2019-02-06T01:30:21.467Z,3.80
2019-02-06T01:32:51.346Z,3.80
2019-02-06T01:35:21.033Z,3.80
2019-02-06T01:37:50.852Z,3.70
2019-02-06T01:40:20.932Z,3.80
2019-02-06T01:42:50.659Z,3.80
2019-02-06T01:45:21.175Z,3.80
2019-02-06T01:47:50.871Z,3.80
2019-02-06T01:50:20.715Z,3.80
2019-02-06T01:52:50.509Z,3.80
2019-02-06T01:55:20.316Z,3.80
2019-02-06T01:57:50.133Z,3.80
2019-02-06T02:00:22.846Z,3.70
2019-02-06T02:02:52.532Z,3.80
2019-02-06T02:05:22.493Z,3.80
2019-02-06T02:07:52.641Z,3.80
2019-02-06T02:10:22.744Z,3.80
2019-02-06T02:12:52.467Z,3.80
2019-02-06T02:15:22.154Z,3.80
2019-02-06T02:17:52.072Z,3.80
2019-02-06T02:20:23.653Z,3.80
2019-02-06T02:22:53.420Z,3.80
2019-02-06T02:25:24.396Z,3.80
2019-02-06T02:27:53.990Z,3.80
2019-02-06T02:30:35.162Z,3.80
2019-02-06T02:33:04.763Z,3.80
2019-02-06T02:35:34.456Z,3.80
2019-02-06T02:38:04.240Z,3.80
2019-02-06T02:40:33.910Z,3.80
2019-02-06T02:43:03.612Z,3.90
2019-02-06T02:45:33.502Z,3.80
2019-02-06T02:48:03.212Z,3.80
2019-02-06T02:50:33.018Z,3.80
2019-02-06T02:53:04.951Z,3.80
2019-02-06T02:55:34.682Z,3.80
2019-02-06T02:58:04.666Z,3.80
2019-02-06T03:00:55.360Z,3.80
2019-02-06T03:03:42.848Z,3.70
2019-02-06T03:06:27.165Z,3.70
2019-02-06T03:08:46.797Z,3.70
2019-02-06T03:11:17.865Z,3.70
2019-02-06T03:13:47.715Z,3.70
2019-02-06T03:16:17.525Z,3.70
2019-02-06T03:18:47.583Z,3.70
2019-02-06T03:21:17.434Z,3.60
2019-02-06T03:23:47.451Z,3.70
2019-02-06T03:26:17.154Z,3.70
2019-02-06T03:28:46.852Z,3.70
2019-02-06T03:31:16.637Z,3.70
2019-02-06T03:33:46.764Z,3.70
2019-02-06T03:36:17.351Z,3.60
2019-02-06T03:38:47.049Z,3.60
2019-02-06T03:41:16.880Z,3.60
2019-02-06T03:43:46.683Z,3.60
2019-02-06T03:46:16.446Z,3.60
2019-02-06T03:48:46.490Z,3.60
2019-02-06T03:51:16.240Z,3.60
2019-02-06T03:53:46.014Z,3.60
2019-02-06T03:56:15.808Z,3.60
2019-02-06T03:58:45.502Z,3.60
2019-02-06T04:01:15.336Z,3.50
2019-02-06T04:03:46.584Z,3.50
2019-02-06T04:06:16.377Z,3.50
2019-02-06T04:08:46.126Z,3.50
2019-02-06T04:11:15.859Z,3.50
2019-02-06T04:13:45.617Z,3.50
2019-02-06T04:16:15.356Z,3.50
2019-02-06T04:18:45.319Z,3.50
2019-02-06T04:21:15.127Z,3.50
2019-02-06T04:23:45.246Z,3.50
2019-02-06T04:26:15.014Z,3.60
2019-02-06T04:28:51.960Z,3.60
2019-02-06T04:31:22.131Z,3.60
2019-02-06T04:33:51.799Z,3.60
2019-02-06T04:36:21.567Z,3.60
2019-02-06T04:38:51.317Z,3.60
2019-02-06T04:41:21.145Z,3.60
2019-02-06T04:43:50.836Z,3.60
2019-02-06T04:46:20.544Z,3.60
2019-02-06T04:48:50.400Z,3.70
2019-02-06T04:51:20.352Z,3.70
2019-02-06T04:53:50.019Z,3.70
2019-02-06T04:56:19.698Z,3.70
2019-02-06T04:58:49.557Z,3.60
2019-02-06T05:01:19.373Z,3.70
2019-02-06T05:03:49.102Z,3.60
2019-02-06T05:06:18.868Z,3.60
2019-02-06T05:08:49.108Z,3.60
2019-02-06T05:11:19.218Z,3.60
2019-02-06T05:13:57.247Z,3.60
2019-02-06T05:16:26.869Z,3.70
2019-02-06T05:18:58.543Z,3.70
2019-02-06T05:21:28.300Z,3.70
2019-02-06T05:24:06.132Z,3.60
2019-02-06T05:26:39.446Z,3.60
2019-02-06T05:29:17.248Z,3.60
2019-02-06T05:31:46.834Z,3.60
2019-02-06T05:34:17.727Z,3.70
2019-02-06T05:36:50.754Z,3.70
2019-02-06T05:39:19.996Z,3.60
2019-02-06T05:41:49.757Z,3.70
2019-02-06T05:44:19.512Z,3.60
2019-02-06T05:46:52.225Z,3.60
2019-02-06T05:49:23.728Z,3.60
2019-02-06T05:52:01.197Z,3.60
2019-02-06T05:54:31.056Z,3.60
2019-02-06T05:57:00.744Z,3.60
2019-02-06T05:59:30.496Z,3.60
2019-02-06T06:02:00.251Z,3.60
2019-02-06T06:04:30.475Z,3.60
2019-02-06T06:07:00.539Z,3.60
2019-02-06T06:09:30.255Z,3.60
2019-02-06T06:12:00.208Z,3.60
2019-02-06T06:14:33.893Z,3.50
2019-02-06T06:17:03.708Z,3.60
2019-02-06T06:19:35.501Z,3.60
2019-02-06T06:22:05.602Z,3.50
2019-02-06T06:24:35.293Z,3.50
2019-02-06T06:27:14.976Z,3.60
2019-02-06T06:29:48.454Z,3.60
2019-02-06T06:32:17.950Z,3.60
2019-02-06T06:34:49.068Z,5.20
2019-02-06T06:38:01.924Z,5.80
2019-02-06T06:40:31.480Z,5.40
2019-02-06T06:43:18.527Z,5.00
2019-02-06T06:46:25.569Z,4.70
2019-02-06T06:52:56.383Z,4.30
2019-02-06T07:00:56.730Z,4.10
2019-02-06T07:03:26.897Z,4.10
2019-02-06T07:09:56.824Z,4.00
2019-02-06T07:12:29.222Z,4.10
2019-02-06T07:15:24.470Z,4.10
2019-02-06T07:17:54.166Z,4.10
2019-02-06T07:20:24.098Z,4.10
2019-02-06T07:23:19.331Z,4.10
2019-02-06T07:25:49.035Z,4.20
2019-02-06T07:28:18.858Z,4.20
2019-02-06T07:30:48.785Z,4.20
2019-02-06T07:33:19.326Z,4.20
2019-02-06T07:35:58.744Z,4.30
2019-02-06T07:38:29.143Z,4.30
2019-02-06T07:41:00.268Z,4.30
2019-02-06T07:43:30.201Z,4.40
2019-02-06T07:46:00.094Z,4.40
2019-02-06T07:48:29.881Z,4.40
2019-02-06T07:50:59.922Z,4.50
2019-02-06T07:53:38.055Z,4.50
2019-02-06T07:56:07.908Z,4.50
2019-02-06T07:59:07.459Z,4.60
2019-02-06T08:01:44.232Z,4.60
2019-02-06T08:04:41.398Z,4.70
2019-02-06T08:07:47.807Z,4.80
2019-02-06T08:10:07.991Z,4.80
2019-02-06T08:12:40.960Z,4.80
2019-02-06T08:15:17.339Z,4.90
2019-02-06T08:17:56.153Z,4.90
2019-02-06T08:20:29.273Z,5.00
2019-02-06T08:22:59.331Z,5.10
2019-02-06T08:25:32.439Z,5.00
2019-02-06T08:28:05.407Z,5.10
2019-02-06T08:30:37.941Z,5.20
2019-02-06T08:33:14.339Z,5.20
2019-02-06T08:35:44.747Z,5.20
2019-02-06T08:38:27.908Z,5.30
2019-02-06T08:40:59.182Z,5.40
2019-02-06T08:43:55.002Z,5.40
2019-02-06T08:46:51.963Z,5.50
2019-02-06T08:49:16.223Z,5.50
2019-02-06T08:51:45.941Z,5.60
2019-02-06T08:54:15.670Z,5.70
2019-02-06T08:56:58.707Z,5.70
2019-02-06T08:59:29.149Z,5.80
2019-02-06T09:01:59.582Z,5.80
2019-02-06T09:04:30.941Z,5.80
2019-02-06T09:07:34.687Z,5.90
2019-02-06T09:10:54.677Z,6.00
2019-02-06T09:13:42.280Z,6.10
2019-02-06T09:16:13.322Z,6.10
2019-02-06T09:18:58.778Z,6.10
2019-02-06T09:21:27.763Z,6.20
2019-02-06T09:24:37.433Z,6.30
2019-02-06T09:27:08.225Z,6.30
2019-02-06T09:48:31.400Z,6.80
2019-02-06T09:55:34.626Z,7.00
2019-02-06T09:57:56.225Z,7.00
2019-02-06T10:04:20.589Z,7.00
2019-02-06T10:06:54.926Z,7.00
2019-02-06T10:09:31.712Z,6.90
2019-02-06T10:12:28.322Z,7.00
2019-02-06T10:15:38.682Z,7.10
2019-02-06T10:18:09.738Z,7.10
2019-02-06T10:27:52.279Z,7.30
2019-02-06T10:38:34.878Z,7.10
2019-02-06T10:48:18.840Z,6.90
2019-02-06T10:51:00.221Z,6.80
2019-02-06T10:54:14.710Z,6.70
2019-02-06T10:56:47.578Z,6.70
2019-02-06T10:59:21.020Z,6.70
2019-02-06T11:01:57.663Z,6.50
2019-02-06T11:17:32.057Z,6.30
2019-02-06T11:19:13.909Z,6.30
2019-02-06T11:20:01.871Z,6.30
2019-02-06T11:23:35.818Z,6.40
2019-02-06T11:40:34.436Z,6.10
2019-02-06T11:43:24.853Z,6.00
2019-02-06T11:46:01.443Z,5.90
2019-02-06T11:48:35.767Z,5.90
2019-02-06T11:51:05.968Z,5.80
2019-02-06T11:53:38.865Z,5.70
2019-02-06T11:56:08.943Z,5.70
2019-02-06T11:58:38.822Z,5.70
2019-02-06T12:01:21.950Z,5.70
2019-02-06T12:04:05.300Z,5.70
2019-02-06T12:06:48.784Z,5.80
2019-02-06T12:09:36.587Z,5.70
2019-02-06T12:16:09.254Z,5.30
2019-02-06T12:21:24.210Z,5.10
2019-02-06T12:27:06.535Z,4.90
2019-02-06T12:29:38.263Z,4.80
2019-02-06T12:43:49.327Z,4.50
2019-02-06T12:46:21.270Z,4.50
2019-02-06T12:48:51.309Z,4.60
2019-02-06T12:51:21.528Z,4.60
2019-02-06T12:54:02.162Z,4.70
2019-02-06T12:57:06.120Z,4.70
2019-02-06T13:00:36.441Z,4.70
2019-02-06T13:03:57.905Z,4.80
2019-02-06T13:05:42.296Z,4.70
2019-02-06T13:08:20.586Z,4.70
2019-02-06T13:10:50.366Z,4.60
2019-02-06T13:13:21.799Z,4.70
2019-02-06T13:15:56.365Z,4.60
2019-02-06T13:18:26.050Z,4.60
2019-02-06T13:20:55.836Z,4.60
2019-02-06T13:23:25.739Z,4.50
2019-02-06T13:25:55.684Z,4.50
2019-02-06T13:28:36.343Z,4.40
2019-02-06T13:31:06.194Z,4.50
2019-02-06T13:33:36.299Z,4.50
2019-02-06T13:36:09.816Z,4.50
2019-02-06T13:38:39.630Z,4.50
2019-02-06T13:41:09.450Z,4.50
2019-02-06T13:43:39.131Z,4.40
2019-02-06T13:46:09.117Z,4.40
2019-02-06T13:48:38.859Z,4.30
2019-02-06T13:51:16.338Z,4.20
2019-02-06T13:53:50.115Z,4.20
2019-02-06T13:56:25.254Z,4.10
2019-02-06T13:58:57.193Z,4.00
2019-02-06T14:01:26.616Z,4.10
2019-02-06T14:03:59.004Z,4.10
2019-02-06T14:06:32.371Z,4.10
2019-02-06T14:09:09.123Z,4.10
2019-02-06T14:11:36.392Z,4.20
2019-02-06T14:14:11.727Z,4.20
2019-02-06T14:17:04.948Z,4.20
2019-02-06T14:28:18.379Z,3.90
2019-02-06T14:54:22.573Z,3.50
2019-02-06T15:01:02.280Z,3.40
2019-02-06T15:04:21.268Z,3.30
2019-02-06T15:07:27.567Z,3.30
2019-02-06T15:10:34.533Z,3.20
2019-02-06T15:13:43.628Z,3.20
2019-02-06T15:16:24.034Z,3.20
2019-02-06T15:19:49.647Z,3.10
2019-02-06T15:26:08.133Z,3.10
2019-02-06T15:29:19.111Z,3.00
2019-02-06T15:32:44.817Z,2.90
2019-02-06T15:35:47.200Z,2.80
2019-02-06T15:38:49.468Z,2.70
2019-02-06T15:41:51.482Z,2.60
2019-02-06T15:44:54.527Z,2.60
2019-02-06T15:47:51.494Z,2.60
2019-02-06T15:50:52.988Z,2.60
2019-02-06T15:53:48.942Z,2.50
2019-02-06T15:56:56.547Z,2.40
2019-02-06T16:00:05.083Z,2.30
2019-02-06T16:03:14.827Z,2.30
2019-02-06T16:06:38.095Z,2.20
2019-02-06T16:09:54.683Z,2.10
2019-02-06T16:13:01.236Z,2.00
2019-02-06T16:20:12.463Z,2.10
2019-02-06T16:24:04.928Z,2.00
2019-02-06T16:27:24.373Z,1.90
2019-02-06T16:30:32.546Z,1.90
2019-02-06T16:33:43.474Z,1.80
2019-02-06T16:36:57.380Z,1.90
2019-02-06T16:40:04.176Z,1.80
2019-02-06T16:43:20.264Z,1.70
2019-02-06T16:47:06.425Z,1.70
2019-02-06T16:50:08.541Z,1.70
2019-02-06T17:00:56.478Z,2.60
2019-02-06T17:04:00.312Z,2.40
2019-02-06T17:07:14.509Z,2.20
2019-02-06T17:10:47.750Z,2.00
2019-02-06T17:14:03.424Z,1.90
2019-02-06T17:17:23.261Z,1.80
2019-02-06T17:20:21.859Z,1.80
2019-02-06T17:24:16.636Z,1.90
2019-02-06T17:30:49.402Z,1.80
2019-02-06T17:34:06.317Z,1.70
2019-02-06T17:37:21.173Z,1.50
2019-02-06T17:40:11.133Z,1.40
2019-02-06T17:43:27.387Z,1.30
2019-02-06T17:49:42.531Z,1.30
2019-02-06T17:53:03.916Z,1.20
2019-02-06T17:55:54.181Z,1.20
2019-02-06T17:58:32.108Z,1.20
2019-02-06T18:01:09.014Z,1.10
2019-02-06T18:03:55.135Z,1.10
2019-02-06T18:06:24.890Z,1.10
2019-02-06T18:08:57.066Z,1.10
2019-02-06T18:11:26.693Z,1.10
2019-02-06T18:13:56.519Z,1.10
2019-02-06T18:16:29.219Z,1.00
2019-02-06T18:19:04.994Z,1.20
2019-02-06T18:21:32.231Z,1.20
2019-02-06T18:24:01.900Z,1.20
2019-02-06T18:26:35.940Z,1.20
2019-02-06T18:29:09.859Z,1.20
2019-02-06T18:31:40.006Z,1.20
2019-02-06T18:34:28.560Z,1.20
2019-02-06T18:36:58.650Z,1.10
2019-02-06T18:39:45.459Z,1.00
2019-02-06T18:42:36.943Z,1.00
2019-02-06T18:45:40.041Z,0.90
2019-02-06T18:48:14.608Z,0.90
2019-02-06T18:50:44.820Z,0.90
2019-02-06T18:53:17.703Z,0.90
2019-02-06T18:55:59.781Z,0.80
2019-02-06T18:58:45.817Z,0.90
2019-02-06T19:01:37.809Z,0.80
2019-02-06T19:11:17.026Z,0.80
2019-02-06T19:13:46.911Z,0.80
2019-02-06T19:16:31.928Z,0.80
2019-02-06T19:19:11.211Z,0.70
2019-02-06T19:21:41.167Z,0.70
2019-02-06T19:24:12.959Z,0.60
2019-02-06T19:27:02.304Z,0.60
2019-02-06T19:29:34.722Z,0.50
2019-02-06T19:32:05.262Z,0.60
2019-02-06T19:34:46.346Z,0.50
2019-02-06T19:37:23.109Z,0.50
2019-02-06T19:39:55.249Z,0.50
2019-02-06T19:43:38.515Z,0.40
2019-02-06T20:04:40.029Z,0.30
2019-02-06T20:07:14.163Z,0.30
2019-02-06T20:09:42.167Z,0.30
2019-02-06T20:12:11.873Z,0.20
2019-02-06T20:14:42.017Z,0.20
2019-02-06T20:17:13.782Z,0.20
2019-02-06T20:19:43.533Z,0.20
2019-02-06T20:22:14.984Z,0.20
2019-02-06T20:24:44.851Z,0.20
2019-02-06T20:27:14.778Z,0.20
2019-02-06T20:29:53.312Z,0.20
2019-02-06T20:32:24.610Z,0.20
2019-02-06T20:34:54.383Z,0.30
2019-02-06T20:37:24.189Z,0.30
2019-02-06T20:39:53.941Z,0.20
2019-02-06T20:49:22.664Z,0.10
2019-02-06T20:51:58.778Z,-0.10
2019-02-06T20:55:12.574Z,-0.20
2019-02-06T20:57:41.957Z,-0.30
2019-02-06T21:00:16.469Z,-0.30
2019-02-06T21:02:46.227Z,-0.30
2019-02-06T21:05:16.639Z,-0.30
2019-02-06T21:07:46.517Z,-0.30
2019-02-06T21:10:18.278Z,-0.40
2019-02-06T21:12:47.904Z,-0.30
2019-02-06T21:15:18.041Z,-0.40
2019-02-06T21:17:47.757Z,-0.50
2019-02-06T21:20:18.994Z,-0.50
2019-02-06T21:22:48.997Z,-0.50
2019-02-06T21:25:19.856Z,-0.50
2019-02-06T21:27:50.200Z,-0.50
2019-02-06T21:30:28.449Z,-0.50
2019-02-06T21:32:58.337Z,-0.50
2019-02-06T21:35:28.302Z,-0.60
2019-02-06T21:37:58.426Z,-0.60
2019-02-06T21:40:29.857Z,-0.70
2019-02-06T21:42:59.615Z,-0.70
2019-02-06T21:45:29.338Z,-0.70
2019-02-06T21:47:59.419Z,-0.70
2019-02-06T21:50:28.979Z,-0.60
2019-02-06T21:52:59.038Z,-0.60
2019-02-06T21:55:28.775Z,-0.70
2019-02-06T21:57:58.486Z,-0.60
2019-02-06T22:00:30.283Z,-0.60
2019-02-06T22:03:00.019Z,-0.70
2019-02-06T22:05:53.956Z,-0.70
2019-02-06T22:08:23.731Z,-0.70
2019-02-06T22:10:53.452Z,-0.80
2019-02-06T22:13:23.124Z,-0.80
2019-02-06T22:15:53.230Z,-0.90
2019-02-06T22:18:23.029Z,-0.90
2019-02-06T22:20:52.806Z,-0.90
2019-02-06T22:23:22.645Z,-0.90
2019-02-06T22:25:52.221Z,-0.90
2019-02-06T22:28:22.000Z,-0.90
2019-02-06T22:30:51.836Z,-0.90
2019-02-06T22:33:22.201Z,-0.90
2019-02-06T22:35:51.978Z,-0.90
2019-02-06T22:38:26.384Z,-1.00
2019-02-06T22:40:56.213Z,-1.00
2019-02-06T22:43:26.112Z,-1.10
2019-02-06T22:45:55.815Z,-1.10
2019-02-06T22:48:25.539Z,-1.10
2019-02-06T22:50:57.493Z,-1.30
2019-02-06T22:53:27.216Z,-1.30
2019-02-06T22:55:56.849Z,-1.30
2019-02-06T22:58:26.504Z,-1.20
2019-02-06T23:01:26.315Z,-1.30
2019-02-06T23:03:56.100Z,-1.30
2019-02-06T23:06:25.961Z,-1.30
2019-02-06T23:08:55.665Z,-1.30
2019-02-06T23:11:25.398Z,-1.30
2019-02-06T23:13:55.106Z,-1.20
2019-02-06T23:16:24.754Z,-1.20
2019-02-06T23:18:55.186Z,-1.30
2019-02-06T23:21:24.879Z,-1.30
2019-02-06T23:23:54.573Z,-1.30
2019-02-06T23:26:24.235Z,-1.30
2019-02-06T23:28:53.991Z,-1.20
2019-02-06T23:31:23.710Z,-1.20
2019-02-06T23:33:53.874Z,-1.20
2019-02-06T23:36:23.526Z,-1.20
2019-02-06T23:39:07.454Z,-1.30
2019-02-06T23:41:37.211Z,-1.30
2019-02-06T23:44:06.943Z,-1.20
2019-02-06T23:46:36.811Z,-1.30
2019-02-06T23:49:06.448Z,-1.30
2019-02-06T23:51:36.122Z,-1.30
2019-02-06T23:54:06.338Z,-1.30
2019-02-06T23:56:36.077Z,-1.30
2019-02-06T23:59:06.041Z,-1.30
